sensor_id;sensor_type;location;lat;lon;timestamp;temperature;humidity
55634;DHT22;41504;53.162;6.788;2023-04-15T00:01:31;8.70;78.60
55634;DHT22;41504;53.162;6.788;2023-04-15T00:04:01;8.70;78.90
55634;DHT22;41504;53.162;6.788;2023-04-15T00:06:27;8.70;78.80
55634;DHT22;41504;53.162;6.788;2023-04-15T00:08:53;8.70;79.00
55634;DHT22;41504;53.162;6.788;2023-04-15T00:11:18;8.60;79.00
55634;DHT22;41504;53.162;6.788;2023-04-15T00:13:45;8.60;79.10
55634;DHT22;41504;53.162;6.788;2023-04-15T00:16:11;8.60;79.00
55634;DHT22;41504;53.162;6.788;2023-04-15T00:18:37;8.60;79.30
55634;DHT22;41504;53.162;6.788;2023-04-15T00:21:04;8.50;79.40
55634;DHT22;41504;53.162;6.788;2023-04-15T00:23:30;8.50;79.50
55634;DHT22;41504;53.162;6.788;2023-04-15T00:25:56;8.50;79.60
55634;DHT22;41504;53.162;6.788;2023-04-15T00:28:21;8.50;79.70
55634;DHT22;41504;53.162;6.788;2023-04-15T00:30:47;8.50;79.80
55634;DHT22;41504;53.162;6.788;2023-04-15T00:33:13;8.40;80.20
55634;DHT22;41504;53.162;6.788;2023-04-15T00:35:41;8.40;79.80
55634;DHT22;41504;53.162;6.788;2023-04-15T00:38:09;8.40;79.90
55634;DHT22;41504;53.162;6.788;2023-04-15T00:40:35;8.40;79.90
55634;DHT22;41504;53.162;6.788;2023-04-15T00:43:02;8.40;80.10
55634;DHT22;41504;53.162;6.788;2023-04-15T00:45:31;8.30;80.20
55634;DHT22;41504;53.162;6.788;2023-04-15T00:47:57;8.30;80.30
55634;DHT22;41504;53.162;6.788;2023-04-15T00:50:23;8.30;80.30
55634;DHT22;41504;53.162;6.788;2023-04-15T00:52:49;8.30;80.40
55634;DHT22;41504;53.162;6.788;2023-04-15T00:55:15;8.20;80.60
55634;DHT22;41504;53.162;6.788;2023-04-15T00:57:41;8.20;80.60
55634;DHT22;41504;53.162;6.788;2023-04-15T01:00:10;8.20;80.70
55634;DHT22;41504;53.162;6.788;2023-04-15T01:02:36;8.20;80.60
55634;DHT22;41504;53.162;6.788;2023-04-15T01:05:06;8.20;81.00
55634;DHT22;41504;53.162;6.788;2023-04-15T01:07:32;8.10;80.90
55634;DHT22;41504;53.162;6.788;2023-04-15T01:09:58;8.10;81.10
55634;DHT22;41504;53.162;6.788;2023-04-15T01:12:25;8.10;81.00
55634;DHT22;41504;53.162;6.788;2023-04-15T01:14:52;8.10;81.10
55634;DHT22;41504;53.162;6.788;2023-04-15T01:17:18;8.00;81.30
55634;DHT22;41504;53.162;6.788;2023-04-15T01:19:45;8.10;81.40
55634;DHT22;41504;53.162;6.788;2023-04-15T01:22:11;8.00;81.40
55634;DHT22;41504;53.162;6.788;2023-04-15T01:24:37;8.00;81.50
55634;DHT22;41504;53.162;6.788;2023-04-15T01:27:04;8.00;81.50
55634;DHT22;41504;53.162;6.788;2023-04-15T01:29:32;8.00;81.40
55634;DHT22;41504;53.162;6.788;2023-04-15T01:31:58;8.00;81.60
55634;DHT22;41504;53.162;6.788;2023-04-15T01:34:23;7.90;82.30
55634;DHT22;41504;53.162;6.788;2023-04-15T01:36:49;7.90;81.90
55634;DHT22;41504;53.162;6.788;2023-04-15T01:39:15;7.90;82.00
55634;DHT22;41504;53.162;6.788;2023-04-15T01:41:41;7.90;82.00
55634;DHT22;41504;53.162;6.788;2023-04-15T01:44:07;7.80;82.10
55634;DHT22;41504;53.162;6.788;2023-04-15T01:46:36;7.80;82.10
55634;DHT22;41504;53.162;6.788;2023-04-15T01:49:02;7.80;82.10
55634;DHT22;41504;53.162;6.788;2023-04-15T01:51:27;7.80;82.30
55634;DHT22;41504;53.162;6.788;2023-04-15T01:53:53;7.80;82.50
55634;DHT22;41504;53.162;6.788;2023-04-15T01:56:21;7.70;82.40
55634;DHT22;41504;53.162;6.788;2023-04-15T01:58:48;7.70;82.60
55634;DHT22;41504;53.162;6.788;2023-04-15T02:01:14;7.70;82.60
55634;DHT22;41504;53.162;6.788;2023-04-15T02:03:41;7.70;82.70
55634;DHT22;41504;53.162;6.788;2023-04-15T02:06:07;7.60;82.60
55634;DHT22;41504;53.162;6.788;2023-04-15T02:08:32;7.60;82.50
55634;DHT22;41504;53.162;6.788;2023-04-15T02:10:58;7.60;82.90
55634;DHT22;41504;53.162;6.788;2023-04-15T02:13:25;7.60;83.10
55634;DHT22;41504;53.162;6.788;2023-04-15T02:15:51;7.50;83.10
55634;DHT22;41504;53.162;6.788;2023-04-15T02:18:17;7.50;83.00
55634;DHT22;41504;53.162;6.788;2023-04-15T02:20:43;7.30;83.30
55634;DHT22;41504;53.162;6.788;2023-04-15T02:23:09;7.40;83.20
55634;DHT22;41504;53.162;6.788;2023-04-15T02:25:36;7.40;83.50
55634;DHT22;41504;53.162;6.788;2023-04-15T02:28:06;7.40;83.70
55634;DHT22;41504;53.162;6.788;2023-04-15T02:30:35;7.40;83.70
55634;DHT22;41504;53.162;6.788;2023-04-15T02:33:02;7.40;83.80
55634;DHT22;41504;53.162;6.788;2023-04-15T02:35:28;7.30;83.90
55634;DHT22;41504;53.162;6.788;2023-04-15T02:37:53;7.30;84.00
55634;DHT22;41504;53.162;6.788;2023-04-15T02:40:19;7.30;84.10
55634;DHT22;41504;53.162;6.788;2023-04-15T02:42:45;7.20;84.20
55634;DHT22;41504;53.162;6.788;2023-04-15T02:45:11;7.30;84.20
55634;DHT22;41504;53.162;6.788;2023-04-15T02:47:37;7.20;84.30
55634;DHT22;41504;53.162;6.788;2023-04-15T02:50:11;7.20;84.40
55634;DHT22;41504;53.162;6.788;2023-04-15T02:52:41;7.20;84.50
55634;DHT22;41504;53.162;6.788;2023-04-15T02:55:07;7.20;84.50
55634;DHT22;41504;53.162;6.788;2023-04-15T02:57:34;7.10;84.60
55634;DHT22;41504;53.162;6.788;2023-04-15T03:00:06;7.10;84.60
55634;DHT22;41504;53.162;6.788;2023-04-15T03:02:37;7.10;84.60
55634;DHT22;41504;53.162;6.788;2023-04-15T03:05:11;7.10;84.80
55634;DHT22;41504;53.162;6.788;2023-04-15T03:07:37;7.10;84.90
55634;DHT22;41504;53.162;6.788;2023-04-15T03:10:02;7.10;85.10
55634;DHT22;41504;53.162;6.788;2023-04-15T03:12:28;7.00;85.20
55634;DHT22;41504;53.162;6.788;2023-04-15T03:14:54;7.00;85.10
55634;DHT22;41504;53.162;6.788;2023-04-15T03:17:21;7.00;85.30
55634;DHT22;41504;53.162;6.788;2023-04-15T03:19:46;7.00;85.50
55634;DHT22;41504;53.162;6.788;2023-04-15T03:22:12;7.00;85.60
55634;DHT22;41504;53.162;6.788;2023-04-15T03:24:38;6.90;85.70
55634;DHT22;41504;53.162;6.788;2023-04-15T03:27:03;6.90;85.60
55634;DHT22;41504;53.162;6.788;2023-04-15T03:29:32;6.90;85.80
55634;DHT22;41504;53.162;6.788;2023-04-15T03:31:58;6.90;85.90
55634;DHT22;41504;53.162;6.788;2023-04-15T03:34:23;6.80;86.00
55634;DHT22;41504;53.162;6.788;2023-04-15T03:36:49;6.80;86.10
55634;DHT22;41504;53.162;6.788;2023-04-15T03:39:15;6.60;86.20
55634;DHT22;41504;53.162;6.788;2023-04-15T03:41:41;6.60;86.50
55634;DHT22;41504;53.162;6.788;2023-04-15T03:44:06;6.60;86.60
55634;DHT22;41504;53.162;6.788;2023-04-15T03:46:32;6.50;86.60
55634;DHT22;41504;53.162;6.788;2023-04-15T03:48:58;6.50;86.80
55634;DHT22;41504;53.162;6.788;2023-04-15T03:51:23;6.40;87.10
55634;DHT22;41504;53.162;6.788;2023-04-15T03:53:49;6.40;87.00
55634;DHT22;41504;53.162;6.788;2023-04-15T03:56:15;6.40;87.00
55634;DHT22;41504;53.162;6.788;2023-04-15T03:58:41;6.40;87.00
55634;DHT22;41504;53.162;6.788;2023-04-15T04:01:07;6.40;87.00
55634;DHT22;41504;53.162;6.788;2023-04-15T04:03:33;6.30;87.00
55634;DHT22;41504;53.162;6.788;2023-04-15T04:05:58;6.30;87.00
55634;DHT22;41504;53.162;6.788;2023-04-15T04:08:24;6.20;87.20
55634;DHT22;41504;53.162;6.788;2023-04-15T04:10:51;6.10;87.60
55634;DHT22;41504;53.162;6.788;2023-04-15T04:13:17;6.10;88.20
55634;DHT22;41504;53.162;6.788;2023-04-15T04:15:43;6.00;89.00
55634;DHT22;41504;53.162;6.788;2023-04-15T04:18:08;6.00;88.90
55634;DHT22;41504;53.162;6.788;2023-04-15T04:20:34;5.80;89.10
55634;DHT22;41504;53.162;6.788;2023-04-15T04:23:00;5.80;89.20
55634;DHT22;41504;53.162;6.788;2023-04-15T04:25:26;5.70;89.20
55634;DHT22;41504;53.162;6.788;2023-04-15T04:27:51;5.70;89.80
55634;DHT22;41504;53.162;6.788;2023-04-15T04:30:17;5.60;89.70
55634;DHT22;41504;53.162;6.788;2023-04-15T04:32:43;5.70;89.70
55634;DHT22;41504;53.162;6.788;2023-04-15T04:35:09;5.60;90.00
55634;DHT22;41504;53.162;6.788;2023-04-15T04:37:34;5.50;90.20
55634;DHT22;41504;53.162;6.788;2023-04-15T04:40:00;5.50;90.10
55634;DHT22;41504;53.162;6.788;2023-04-15T04:42:26;5.50;90.00
55634;DHT22;41504;53.162;6.788;2023-04-15T04:44:52;5.50;90.40
55634;DHT22;41504;53.162;6.788;2023-04-15T04:47:18;5.40;90.30
55634;DHT22;41504;53.162;6.788;2023-04-15T04:49:43;5.40;90.30
55634;DHT22;41504;53.162;6.788;2023-04-15T04:52:09;5.40;90.30
55634;DHT22;41504;53.162;6.788;2023-04-15T04:54:35;5.40;90.50
55634;DHT22;41504;53.162;6.788;2023-04-15T04:57:01;5.30;90.50
55634;DHT22;41504;53.162;6.788;2023-04-15T04:59:27;5.30;90.80
55634;DHT22;41504;53.162;6.788;2023-04-15T05:01:53;5.30;90.90
55634;DHT22;41504;53.162;6.788;2023-04-15T05:04:18;5.30;90.90
55634;DHT22;41504;53.162;6.788;2023-04-15T05:06:45;5.30;90.90
55634;DHT22;41504;53.162;6.788;2023-04-15T05:09:10;5.30;91.10
55634;DHT22;41504;53.162;6.788;2023-04-15T05:11:36;5.30;91.00
55634;DHT22;41504;53.162;6.788;2023-04-15T05:14:02;5.30;91.10
55634;DHT22;41504;53.162;6.788;2023-04-15T05:16:28;5.40;91.40
55634;DHT22;41504;53.162;6.788;2023-04-15T05:18:54;5.30;91.40
55634;DHT22;41504;53.162;6.788;2023-04-15T05:21:19;5.40;91.60
55634;DHT22;41504;53.162;6.788;2023-04-15T05:23:46;5.60;91.40
55634;DHT22;41504;53.162;6.788;2023-04-15T05:26:11;5.50;91.40
55634;DHT22;41504;53.162;6.788;2023-04-15T05:28:37;5.30;91.40
55634;DHT22;41504;53.162;6.788;2023-04-15T05:31:03;5.90;91.60
55634;DHT22;41504;53.162;6.788;2023-04-15T05:33:29;5.30;91.40
55634;DHT22;41504;53.162;6.788;2023-04-15T05:35:54;5.30;91.60
55634;DHT22;41504;53.162;6.788;2023-04-15T05:38:20;5.60;91.60
55634;DHT22;41504;53.162;6.788;2023-04-15T05:40:46;5.90;91.80
55634;DHT22;41504;53.162;6.788;2023-04-15T05:43:12;5.90;91.70
55634;DHT22;41504;53.162;6.788;2023-04-15T05:45:37;5.50;91.50
55634;DHT22;41504;53.162;6.788;2023-04-15T05:48:03;5.50;91.70
55634;DHT22;41504;53.162;6.788;2023-04-15T05:50:29;5.50;91.70
55634;DHT22;41504;53.162;6.788;2023-04-15T05:52:55;5.90;91.90
55634;DHT22;41504;53.162;6.788;2023-04-15T05:55:21;5.80;91.60
55634;DHT22;41504;53.162;6.788;2023-04-15T05:57:46;5.70;91.60
55634;DHT22;41504;53.162;6.788;2023-04-15T06:00:13;5.70;91.70
55634;DHT22;41504;53.162;6.788;2023-04-15T06:02:39;5.70;92.10
55634;DHT22;41504;53.162;6.788;2023-04-15T06:05:05;5.70;91.80
55634;DHT22;41504;53.162;6.788;2023-04-15T06:07:38;5.70;92.10
55634;DHT22;41504;53.162;6.788;2023-04-15T06:10:04;5.80;91.90
55634;DHT22;41504;53.162;6.788;2023-04-15T06:12:30;5.80;91.70
55634;DHT22;41504;53.162;6.788;2023-04-15T06:14:56;5.90;91.90
55634;DHT22;41504;53.162;6.788;2023-04-15T06:17:21;5.90;91.70
55634;DHT22;41504;53.162;6.788;2023-04-15T06:19:47;6.20;91.70
55634;DHT22;41504;53.162;6.788;2023-04-15T06:22:14;6.10;91.70
55634;DHT22;41504;53.162;6.788;2023-04-15T06:24:41;6.20;92.00
55634;DHT22;41504;53.162;6.788;2023-04-15T06:27:07;6.30;91.80
55634;DHT22;41504;53.162;6.788;2023-04-15T06:29:32;6.40;91.80
55634;DHT22;41504;53.162;6.788;2023-04-15T06:31:58;6.70;91.70
55634;DHT22;41504;53.162;6.788;2023-04-15T06:34:24;6.60;91.80
55634;DHT22;41504;53.162;6.788;2023-04-15T06:36:50;6.70;91.70
55634;DHT22;41504;53.162;6.788;2023-04-15T06:39:15;6.90;91.70
55634;DHT22;41504;53.162;6.788;2023-04-15T06:41:41;7.00;91.60
55634;DHT22;41504;53.162;6.788;2023-04-15T06:44:07;7.10;91.80
55634;DHT22;41504;53.162;6.788;2023-04-15T06:46:33;7.10;91.70
55634;DHT22;41504;53.162;6.788;2023-04-15T06:48:59;7.20;91.60
55634;DHT22;41504;53.162;6.788;2023-04-15T06:51:24;7.30;91.70
55634;DHT22;41504;53.162;6.788;2023-04-15T06:53:50;7.40;91.90
55634;DHT22;41504;53.162;6.788;2023-04-15T06:56:16;7.40;91.80
55634;DHT22;41504;53.162;6.788;2023-04-15T06:58:41;7.50;91.50
55634;DHT22;41504;53.162;6.788;2023-04-15T07:01:07;7.80;91.50
55634;DHT22;41504;53.162;6.788;2023-04-15T07:03:33;7.70;91.50
55634;DHT22;41504;53.162;6.788;2023-04-15T07:05:59;7.70;91.30
55634;DHT22;41504;53.162;6.788;2023-04-15T07:08:26;7.90;91.40
55634;DHT22;41504;53.162;6.788;2023-04-15T07:10:51;7.90;91.20
55634;DHT22;41504;53.162;6.788;2023-04-15T07:13:18;8.00;91.10
55634;DHT22;41504;53.162;6.788;2023-04-15T07:15:44;8.20;91.20
55634;DHT22;41504;53.162;6.788;2023-04-15T07:18:22;8.40;91.00
55634;DHT22;41504;53.162;6.788;2023-04-15T07:20:50;8.20;91.00
55634;DHT22;41504;53.162;6.788;2023-04-15T07:23:16;8.30;90.80
55634;DHT22;41504;53.162;6.788;2023-04-15T07:25:42;8.30;90.70
55634;DHT22;41504;53.162;6.788;2023-04-15T07:28:08;8.40;90.60
55634;DHT22;41504;53.162;6.788;2023-04-15T07:30:34;8.70;90.60
55634;DHT22;41504;53.162;6.788;2023-04-15T07:33:00;8.50;90.40
55634;DHT22;41504;53.162;6.788;2023-04-15T07:35:27;8.60;90.40
55634;DHT22;41504;53.162;6.788;2023-04-15T07:37:53;8.60;90.20
55634;DHT22;41504;53.162;6.788;2023-04-15T07:40:19;8.60;90.20
55634;DHT22;41504;53.162;6.788;2023-04-15T07:42:46;8.70;90.20
55634;DHT22;41504;53.162;6.788;2023-04-15T07:45:14;8.60;90.10
55634;DHT22;41504;53.162;6.788;2023-04-15T07:47:40;8.70;90.10
55634;DHT22;41504;53.162;6.788;2023-04-15T07:50:08;8.80;90.20
55634;DHT22;41504;53.162;6.788;2023-04-15T07:52:37;8.70;90.10
55634;DHT22;41504;53.162;6.788;2023-04-15T07:55:07;8.60;90.10
55634;DHT22;41504;53.162;6.788;2023-04-15T07:57:34;8.60;90.10
55634;DHT22;41504;53.162;6.788;2023-04-15T08:00:01;8.60;90.10
55634;DHT22;41504;53.162;6.788;2023-04-15T08:02:28;8.70;90.00
55634;DHT22;41504;53.162;6.788;2023-04-15T08:04:54;8.70;90.20
55634;DHT22;41504;53.162;6.788;2023-04-15T08:07:19;8.70;90.00
55634;DHT22;41504;53.162;6.788;2023-04-15T08:09:45;8.80;90.00
55634;DHT22;41504;53.162;6.788;2023-04-15T08:12:12;8.70;89.60
55634;DHT22;41504;53.162;6.788;2023-04-15T08:14:39;8.70;89.40
55634;DHT22;41504;53.162;6.788;2023-04-15T08:17:05;8.70;88.90
55634;DHT22;41504;53.162;6.788;2023-04-15T08:19:31;8.80;89.00
55634;DHT22;41504;53.162;6.788;2023-04-15T08:21:56;8.70;88.70
55634;DHT22;41504;53.162;6.788;2023-04-15T08:24:23;8.70;88.80
55634;DHT22;41504;53.162;6.788;2023-04-15T08:26:51;8.70;88.70
55634;DHT22;41504;53.162;6.788;2023-04-15T08:29:16;8.70;88.80
55634;DHT22;41504;53.162;6.788;2023-04-15T08:31:42;8.70;88.90
55634;DHT22;41504;53.162;6.788;2023-04-15T08:34:10;8.70;89.10
55634;DHT22;41504;53.162;6.788;2023-04-15T08:36:36;8.70;89.00
55634;DHT22;41504;53.162;6.788;2023-04-15T08:39:02;8.60;89.00
55634;DHT22;41504;53.162;6.788;2023-04-15T08:41:37;8.60;88.70
55634;DHT22;41504;53.162;6.788;2023-04-15T08:44:04;8.60;88.80
55634;DHT22;41504;53.162;6.788;2023-04-15T08:46:31;8.60;88.80
55634;DHT22;41504;53.162;6.788;2023-04-15T08:49:02;8.70;88.70
55634;DHT22;41504;53.162;6.788;2023-04-15T08:51:28;8.80;88.10
55634;DHT22;41504;53.162;6.788;2023-04-15T08:53:54;8.90;88.00
55634;DHT22;41504;53.162;6.788;2023-04-15T08:56:24;8.80;88.10
55634;DHT22;41504;53.162;6.788;2023-04-15T08:58:51;8.90;87.80
55634;DHT22;41504;53.162;6.788;2023-04-15T09:01:20;8.80;88.00
55634;DHT22;41504;53.162;6.788;2023-04-15T09:03:48;8.80;88.10
55634;DHT22;41504;53.162;6.788;2023-04-15T09:06:20;8.80;87.80
55634;DHT22;41504;53.162;6.788;2023-04-15T09:08:46;8.90;87.30
55634;DHT22;41504;53.162;6.788;2023-04-15T09:11:12;8.90;87.50
55634;DHT22;41504;53.162;6.788;2023-04-15T09:13:39;8.90;87.80
55634;DHT22;41504;53.162;6.788;2023-04-15T09:16:08;8.90;87.80
55634;DHT22;41504;53.162;6.788;2023-04-15T09:18:43;9.00;87.60
55634;DHT22;41504;53.162;6.788;2023-04-15T09:21:32;9.00;87.00
55634;DHT22;41504;53.162;6.788;2023-04-15T09:24:00;9.10;86.90
55634;DHT22;41504;53.162;6.788;2023-04-15T09:26:34;9.10;86.90
55634;DHT22;41504;53.162;6.788;2023-04-15T09:29:07;9.10;86.50
55634;DHT22;41504;53.162;6.788;2023-04-15T09:31:34;9.10;86.50
55634;DHT22;41504;53.162;6.788;2023-04-15T09:34:03;9.20;86.50
55634;DHT22;41504;53.162;6.788;2023-04-15T09:39:10;9.20;86.20
55634;DHT22;41504;53.162;6.788;2023-04-15T09:41:37;9.30;86.10
55634;DHT22;41504;53.162;6.788;2023-04-15T09:44:03;9.30;85.90
55634;DHT22;41504;53.162;6.788;2023-04-15T09:46:43;9.40;86.10
55634;DHT22;41504;53.162;6.788;2023-04-15T09:49:10;9.40;86.00
55634;DHT22;41504;53.162;6.788;2023-04-15T09:51:36;9.50;85.50
55634;DHT22;41504;53.162;6.788;2023-04-15T09:54:02;9.50;85.50
55634;DHT22;41504;53.162;6.788;2023-04-15T09:56:36;9.50;85.80
55634;DHT22;41504;53.162;6.788;2023-04-15T09:59:04;9.40;86.00
55634;DHT22;41504;53.162;6.788;2023-04-15T10:01:30;9.30;86.30
55634;DHT22;41504;53.162;6.788;2023-04-15T10:03:57;9.50;86.40
55634;DHT22;41504;53.162;6.788;2023-04-15T10:06:35;9.40;86.40
55634;DHT22;41504;53.162;6.788;2023-04-15T10:09:07;9.30;86.60
55634;DHT22;41504;53.162;6.788;2023-04-15T10:11:34;9.30;86.70
55634;DHT22;41504;53.162;6.788;2023-04-15T10:14:00;9.20;87.00
55634;DHT22;41504;53.162;6.788;2023-04-15T10:16:26;9.20;87.10
55634;DHT22;41504;53.162;6.788;2023-04-15T10:18:56;9.20;87.10
55634;DHT22;41504;53.162;6.788;2023-04-15T10:21:23;9.20;87.30
55634;DHT22;41504;53.162;6.788;2023-04-15T10:23:49;9.30;87.30
55634;DHT22;41504;53.162;6.788;2023-04-15T10:26:16;9.30;87.00
55634;DHT22;41504;53.162;6.788;2023-04-15T10:28:43;9.20;86.50
55634;DHT22;41504;53.162;6.788;2023-04-15T10:31:12;9.30;86.60
55634;DHT22;41504;53.162;6.788;2023-04-15T10:33:51;9.30;86.50
55634;DHT22;41504;53.162;6.788;2023-04-15T10:36:18;9.30;86.50
55634;DHT22;41504;53.162;6.788;2023-04-15T10:38:45;9.30;86.50
55634;DHT22;41504;53.162;6.788;2023-04-15T10:41:22;9.30;86.70
55634;DHT22;41504;53.162;6.788;2023-04-15T10:43:55;9.30;86.90
55634;DHT22;41504;53.162;6.788;2023-04-15T10:46:41;9.30;87.00
55634;DHT22;41504;53.162;6.788;2023-04-15T10:49:10;9.20;87.00
55634;DHT22;41504;53.162;6.788;2023-04-15T10:51:38;9.30;87.30
55634;DHT22;41504;53.162;6.788;2023-04-15T10:54:15;9.40;87.60
55634;DHT22;41504;53.162;6.788;2023-04-15T10:56:43;9.40;87.30
55634;DHT22;41504;53.162;6.788;2023-04-15T10:59:09;9.30;87.10
55634;DHT22;41504;53.162;6.788;2023-04-15T11:01:57;9.30;87.00
55634;DHT22;41504;53.162;6.788;2023-04-15T11:04:56;9.40;87.00
55634;DHT22;41504;53.162;6.788;2023-04-15T11:07:50;9.40;87.00
55634;DHT22;41504;53.162;6.788;2023-04-15T11:15:43;9.40;87.50
55634;DHT22;41504;53.162;6.788;2023-04-15T11:18:10;9.40;87.50
55634;DHT22;41504;53.162;6.788;2023-04-15T11:20:43;9.30;87.40
55634;DHT22;41504;53.162;6.788;2023-04-15T11:23:19;9.30;87.80
55634;DHT22;41504;53.162;6.788;2023-04-15T11:25:45;9.20;88.00
55634;DHT22;41504;53.162;6.788;2023-04-15T11:28:11;9.20;88.40
55634;DHT22;41504;53.162;6.788;2023-04-15T11:30:38;9.10;88.80
55634;DHT22;41504;53.162;6.788;2023-04-15T11:33:06;9.20;88.90
55634;DHT22;41504;53.162;6.788;2023-04-15T11:35:33;9.20;89.00
55634;DHT22;41504;53.162;6.788;2023-04-15T11:38:11;9.20;89.00
55634;DHT22;41504;53.162;6.788;2023-04-15T11:40:38;9.30;89.40
55634;DHT22;41504;53.162;6.788;2023-04-15T11:43:04;9.30;89.10
55634;DHT22;41504;53.162;6.788;2023-04-15T11:45:30;9.30;88.80
55634;DHT22;41504;53.162;6.788;2023-04-15T11:48:08;9.40;89.10
55634;DHT22;41504;53.162;6.788;2023-04-15T11:50:35;9.40;89.50
55634;DHT22;41504;53.162;6.788;2023-04-15T11:53:48;9.40;89.70
55634;DHT22;41504;53.162;6.788;2023-04-15T11:59:54;9.40;90.40
55634;DHT22;41504;53.162;6.788;2023-04-15T12:02:19;9.20;90.40
55634;DHT22;41504;53.162;6.788;2023-04-15T12:04:46;9.20;90.70
55634;DHT22;41504;53.162;6.788;2023-04-15T12:07:12;9.10;90.80
55634;DHT22;41504;53.162;6.788;2023-04-15T12:09:37;9.10;91.00
55634;DHT22;41504;53.162;6.788;2023-04-15T12:12:04;9.10;91.10
55634;DHT22;41504;53.162;6.788;2023-04-15T12:14:31;9.00;91.10
55634;DHT22;41504;53.162;6.788;2023-04-15T12:16:59;9.00;91.30
55634;DHT22;41504;53.162;6.788;2023-04-15T12:19:35;9.00;91.40
55634;DHT22;41504;53.162;6.788;2023-04-15T12:22:04;9.00;91.50
55634;DHT22;41504;53.162;6.788;2023-04-15T12:24:32;9.00;91.50
55634;DHT22;41504;53.162;6.788;2023-04-15T12:27:04;9.00;91.70
55634;DHT22;41504;53.162;6.788;2023-04-15T12:29:31;8.90;91.80
55634;DHT22;41504;53.162;6.788;2023-04-15T12:32:11;8.90;91.70
55634;DHT22;41504;53.162;6.788;2023-04-15T12:34:39;8.90;91.80
55634;DHT22;41504;53.162;6.788;2023-04-15T12:37:07;8.90;91.80
55634;DHT22;41504;53.162;6.788;2023-04-15T12:39:42;8.90;91.80
55634;DHT22;41504;53.162;6.788;2023-04-15T12:42:09;8.90;91.90
55634;DHT22;41504;53.162;6.788;2023-04-15T12:44:35;8.80;92.10
55634;DHT22;41504;53.162;6.788;2023-04-15T12:47:02;8.70;92.20
55634;DHT22;41504;53.162;6.788;2023-04-15T12:49:28;8.70;92.40
55634;DHT22;41504;53.162;6.788;2023-04-15T12:51:55;8.80;92.50
55634;DHT22;41504;53.162;6.788;2023-04-15T12:54:22;8.70;92.40
55634;DHT22;41504;53.162;6.788;2023-04-15T12:56:49;8.70;92.60
55634;DHT22;41504;53.162;6.788;2023-04-15T12:59:16;8.60;92.40
55634;DHT22;41504;53.162;6.788;2023-04-15T13:01:46;8.70;92.60
55634;DHT22;41504;53.162;6.788;2023-04-15T13:04:12;8.60;92.70
55634;DHT22;41504;53.162;6.788;2023-04-15T13:06:38;8.60;92.90
55634;DHT22;41504;53.162;6.788;2023-04-15T13:09:04;8.50;92.90
55634;DHT22;41504;53.162;6.788;2023-04-15T13:11:30;8.60;93.10
55634;DHT22;41504;53.162;6.788;2023-04-15T13:14:05;8.50;93.00
55634;DHT22;41504;53.162;6.788;2023-04-15T13:16:36;8.50;93.20
55634;DHT22;41504;53.162;6.788;2023-04-15T13:19:03;8.50;93.20
55634;DHT22;41504;53.162;6.788;2023-04-15T13:21:29;8.50;93.20
55634;DHT22;41504;53.162;6.788;2023-04-15T13:23:58;8.50;93.30
55634;DHT22;41504;53.162;6.788;2023-04-15T13:26:26;8.50;93.40
55634;DHT22;41504;53.162;6.788;2023-04-15T13:28:52;8.50;93.40
55634;DHT22;41504;53.162;6.788;2023-04-15T13:31:18;8.50;93.50
55634;DHT22;41504;53.162;6.788;2023-04-15T13:33:46;8.50;93.60
55634;DHT22;41504;53.162;6.788;2023-04-15T13:36:12;8.50;93.40
55634;DHT22;41504;53.162;6.788;2023-04-15T13:38:38;8.60;93.40
55634;DHT22;41504;53.162;6.788;2023-04-15T13:41:04;8.50;93.50
55634;DHT22;41504;53.162;6.788;2023-04-15T13:43:29;8.60;93.40
55634;DHT22;41504;53.162;6.788;2023-04-15T13:45:58;8.50;93.40
55634;DHT22;41504;53.162;6.788;2023-04-15T13:48:23;8.50;93.50
55634;DHT22;41504;53.162;6.788;2023-04-15T13:50:49;8.50;93.40
55634;DHT22;41504;53.162;6.788;2023-04-15T13:53:15;8.50;93.40
55634;DHT22;41504;53.162;6.788;2023-04-15T13:55:41;8.40;93.50
55634;DHT22;41504;53.162;6.788;2023-04-15T13:58:08;8.50;93.50
55634;DHT22;41504;53.162;6.788;2023-04-15T14:00:33;8.50;93.60
55634;DHT22;41504;53.162;6.788;2023-04-15T14:02:59;8.50;93.50
55634;DHT22;41504;53.162;6.788;2023-04-15T14:05:25;8.40;93.70
55634;DHT22;41504;53.162;6.788;2023-04-15T14:07:51;8.40;93.70
55634;DHT22;41504;53.162;6.788;2023-04-15T14:10:16;8.40;93.70
55634;DHT22;41504;53.162;6.788;2023-04-15T14:12:42;8.40;93.80
55634;DHT22;41504;53.162;6.788;2023-04-15T14:15:08;8.50;93.90
55634;DHT22;41504;53.162;6.788;2023-04-15T14:17:34;8.50;93.80
55634;DHT22;41504;53.162;6.788;2023-04-15T14:20:00;8.50;93.80
55634;DHT22;41504;53.162;6.788;2023-04-15T14:22:26;8.50;93.80
55634;DHT22;41504;53.162;6.788;2023-04-15T14:24:52;8.50;93.80
55634;DHT22;41504;53.162;6.788;2023-04-15T14:27:19;8.50;93.80
55634;DHT22;41504;53.162;6.788;2023-04-15T14:29:44;8.50;93.90
55634;DHT22;41504;53.162;6.788;2023-04-15T14:32:10;8.50;94.10
55634;DHT22;41504;53.162;6.788;2023-04-15T14:34:36;8.50;94.00
55634;DHT22;41504;53.162;6.788;2023-04-15T14:37:08;8.40;94.10
55634;DHT22;41504;53.162;6.788;2023-04-15T14:39:44;8.40;94.10
55634;DHT22;41504;53.162;6.788;2023-04-15T14:42:10;8.40;94.50
55634;DHT22;41504;53.162;6.788;2023-04-15T14:44:36;8.40;94.30
55634;DHT22;41504;53.162;6.788;2023-04-15T14:47:02;8.40;94.30
55634;DHT22;41504;53.162;6.788;2023-04-15T14:49:28;8.40;94.20
55634;DHT22;41504;53.162;6.788;2023-04-15T14:51:54;8.40;94.40
55634;DHT22;41504;53.162;6.788;2023-04-15T14:54:20;8.50;94.30
55634;DHT22;41504;53.162;6.788;2023-04-15T14:56:46;8.40;94.50
55634;DHT22;41504;53.162;6.788;2023-04-15T14:59:11;8.30;94.50
55634;DHT22;41504;53.162;6.788;2023-04-15T15:01:37;8.30;94.50
55634;DHT22;41504;53.162;6.788;2023-04-15T15:04:09;8.40;94.50
55634;DHT22;41504;53.162;6.788;2023-04-15T15:06:37;8.30;94.50
55634;DHT22;41504;53.162;6.788;2023-04-15T15:09:03;8.30;94.50
55634;DHT22;41504;53.162;6.788;2023-04-15T15:11:29;8.30;94.60
55634;DHT22;41504;53.162;6.788;2023-04-15T15:13:55;8.30;94.60
55634;DHT22;41504;53.162;6.788;2023-04-15T15:16:21;8.20;94.90
55634;DHT22;41504;53.162;6.788;2023-04-15T15:18:47;8.30;94.70
55634;DHT22;41504;53.162;6.788;2023-04-15T15:21:13;8.30;94.90
55634;DHT22;41504;53.162;6.788;2023-04-15T15:23:38;8.30;94.90
55634;DHT22;41504;53.162;6.788;2023-04-15T15:26:04;8.30;94.80
55634;DHT22;41504;53.162;6.788;2023-04-15T15:28:30;8.30;94.70
55634;DHT22;41504;53.162;6.788;2023-04-15T15:30:59;8.30;94.80
55634;DHT22;41504;53.162;6.788;2023-04-15T15:33:34;8.30;94.90
55634;DHT22;41504;53.162;6.788;2023-04-15T15:36:00;8.30;95.00
55634;DHT22;41504;53.162;6.788;2023-04-15T15:38:27;8.30;95.10
55634;DHT22;41504;53.162;6.788;2023-04-15T15:40:52;8.30;95.10
55634;DHT22;41504;53.162;6.788;2023-04-15T15:43:18;8.30;95.00
55634;DHT22;41504;53.162;6.788;2023-04-15T15:45:44;8.30;95.20
55634;DHT22;41504;53.162;6.788;2023-04-15T15:48:10;8.30;95.10
55634;DHT22;41504;53.162;6.788;2023-04-15T15:50:37;8.30;95.00
55634;DHT22;41504;53.162;6.788;2023-04-15T15:53:03;8.30;95.20
55634;DHT22;41504;53.162;6.788;2023-04-15T15:55:28;8.30;95.10
55634;DHT22;41504;53.162;6.788;2023-04-15T15:57:54;8.30;95.20